createdAt,value
2023-05-12T00:00:48.076Z,1047.00
2023-05-12T00:01:48.086Z,1046.00
2023-05-12T00:02:48.154Z,1047.00
2023-05-12T00:03:48.388Z,1046.00
2023-05-12T00:04:48.176Z,1045.00
2023-05-12T00:05:48.156Z,1042.00
2023-05-12T00:06:48.161Z,1040.00
2023-05-12T00:07:48.175Z,1034.00
2023-05-12T00:08:48.182Z,1036.00
2023-05-12T00:09:48.161Z,1034.00
2023-05-12T00:10:48.197Z,1038.00
2023-05-12T00:11:48.222Z,1041.00
2023-05-12T00:12:48.235Z,1042.00
2023-05-12T00:13:48.293Z,1040.00
2023-05-12T00:14:48.275Z,1041.00
2023-05-12T00:15:48.300Z,1041.00
2023-05-12T00:16:48.475Z,1042.00
2023-05-12T00:17:48.393Z,1042.00
2023-05-12T00:18:48.428Z,1035.00
2023-05-12T00:19:48.438Z,1033.00
2023-05-12T00:20:48.428Z,1035.00
2023-05-12T00:21:48.459Z,1034.00
2023-05-12T00:22:48.473Z,1035.00
2023-05-12T00:23:48.471Z,1032.00
2023-05-12T00:24:48.470Z,1033.00
2023-05-12T00:25:48.486Z,1033.00
2023-05-12T00:26:48.489Z,1032.00
2023-05-12T00:27:48.517Z,1034.00
2023-05-12T00:28:48.548Z,1038.00
2023-05-12T00:29:48.562Z,1040.00
2023-05-12T00:30:48.588Z,1042.00
2023-05-12T00:31:48.673Z,1040.00
2023-05-12T00:32:48.730Z,1039.00
2023-05-12T00:33:48.650Z,1039.00
2023-05-12T00:34:48.664Z,1041.00
2023-05-12T00:35:48.665Z,1040.00
2023-05-12T00:36:48.681Z,1037.00
2023-05-12T00:37:48.725Z,1036.00
2023-05-12T00:38:48.717Z,1033.00
2023-05-12T00:39:48.758Z,1032.00
2023-05-12T00:40:48.750Z,1032.00
2023-05-12T00:41:48.762Z,1032.00
2023-05-12T00:42:48.784Z,1034.00
2023-05-12T00:43:48.801Z,1035.00
2023-05-12T00:44:48.805Z,1036.00
2023-05-12T00:45:48.891Z,1036.00
2023-05-12T00:46:48.825Z,1038.00
2023-05-12T00:47:48.897Z,1038.00
2023-05-12T00:48:48.864Z,1037.00
2023-05-12T00:49:48.875Z,1039.00
2023-05-12T00:50:48.897Z,1036.00
2023-05-12T00:51:48.911Z,1037.00
2023-05-12T00:52:48.941Z,1035.00
2023-05-12T00:53:50.382Z,1030.00
2023-05-12T00:54:48.951Z,1028.00
2023-05-12T00:55:48.974Z,1026.00
2023-05-12T00:56:48.999Z,1027.00
2023-05-12T00:57:48.982Z,1025.00
2023-05-12T00:58:49.154Z,1022.00
2023-05-12T00:59:49.050Z,1018.00
2023-05-12T01:00:49.130Z,1019.00
2023-05-12T01:01:49.088Z,1019.00
2023-05-12T01:02:49.181Z,1020.00
2023-05-12T01:03:49.245Z,1021.00
2023-05-12T01:04:49.114Z,1020.00
2023-05-12T01:05:49.255Z,1021.00
2023-05-12T01:06:49.157Z,1021.00
2023-05-12T01:07:49.164Z,1020.00
2023-05-12T01:08:49.169Z,1021.00
2023-05-12T01:09:49.205Z,1021.00
2023-05-12T01:10:49.206Z,1021.00
2023-05-12T01:11:49.217Z,1023.00
2023-05-12T01:12:49.768Z,1026.00
2023-05-12T01:13:49.272Z,1029.00
2023-05-12T01:14:49.285Z,1028.00
2023-05-12T01:15:49.293Z,1025.00
2023-05-12T01:16:49.352Z,1023.00
2023-05-12T01:17:49.382Z,1025.00
2023-05-12T01:18:49.463Z,1024.00
2023-05-12T01:19:49.406Z,1023.00
2023-05-12T01:20:49.392Z,1022.00
2023-05-12T01:21:49.395Z,1023.00
2023-05-12T01:22:49.435Z,1023.00
2023-05-12T01:23:49.456Z,1024.00
2023-05-12T01:24:49.468Z,1023.00
2023-05-12T01:25:49.474Z,1021.00
2023-05-12T01:26:49.513Z,1024.00
2023-05-12T01:27:49.508Z,1021.00
2023-05-12T01:28:49.528Z,1018.00
2023-05-12T01:29:49.547Z,1017.00
2023-05-12T01:30:49.624Z,1018.00
2023-05-12T01:31:49.640Z,1019.00
2023-05-12T01:32:49.644Z,1017.00
2023-05-12T01:33:49.618Z,1014.00
2023-05-12T01:34:49.629Z,1015.00
2023-05-12T01:35:49.693Z,1014.00
2023-05-12T01:36:49.692Z,1016.00
2023-05-12T01:37:49.699Z,1015.00
2023-05-12T01:38:49.717Z,1016.00
2023-05-12T01:39:49.722Z,1014.00
2023-05-12T01:40:49.749Z,1014.00
2023-05-12T01:41:49.794Z,1018.00
2023-05-12T01:42:49.799Z,1018.00
2023-05-12T01:43:49.797Z,1018.00
2023-05-12T01:44:49.803Z,1018.00
2023-05-12T01:45:49.864Z,1020.00
2023-05-12T01:46:49.968Z,1019.00
2023-05-12T01:47:49.899Z,1021.00
2023-05-12T01:48:49.898Z,1015.00
2023-05-12T01:49:49.880Z,1007.00
2023-05-12T01:50:49.921Z,1008.00
2023-05-12T01:51:49.914Z,1004.00
2023-05-12T01:52:49.945Z,1001.00
2023-05-12T01:53:49.962Z,1002.00
2023-05-12T01:54:49.970Z,1002.00
2023-05-12T01:55:49.988Z,1003.00
2023-05-12T01:56:50.022Z,1005.00
2023-05-12T01:57:50.025Z,1005.00
2023-05-12T01:58:50.097Z,1005.00
2023-05-12T01:59:50.068Z,1002.00
2023-05-12T02:00:50.088Z,1006.00
2023-05-12T02:01:50.134Z,1008.00
2023-05-12T02:02:50.177Z,1012.00
2023-05-12T02:03:50.334Z,1013.00
2023-05-12T02:04:50.179Z,1013.00
2023-05-12T02:05:50.231Z,1011.00
2023-05-12T02:06:50.243Z,1012.00
2023-05-12T02:07:50.255Z,1014.00
2023-05-12T02:08:50.280Z,1011.00
2023-05-12T02:09:50.282Z,1012.00
2023-05-12T02:10:50.340Z,1012.00
2023-05-12T02:11:50.350Z,1011.00
2023-05-12T02:12:50.356Z,1008.00
2023-05-12T02:13:50.349Z,1006.00
2023-05-12T02:14:50.393Z,1003.00
2023-05-12T02:15:50.418Z,1005.00
2023-05-12T02:16:50.571Z,1006.00
2023-05-12T02:17:50.529Z,1002.00
2023-05-12T02:18:50.552Z,1000.00
2023-05-12T02:19:50.502Z,1000.00
2023-05-12T02:20:50.531Z,997.00
2023-05-12T02:21:50.569Z,998.00
2023-05-12T02:22:50.563Z,999.00
2023-05-12T02:23:50.587Z,1002.00
2023-05-12T02:24:50.626Z,1002.00
2023-05-12T02:25:50.663Z,1006.00
2023-05-12T02:26:50.723Z,1008.00
2023-05-12T02:27:50.716Z,1011.00
2023-05-12T02:28:50.726Z,1011.00
2023-05-12T02:29:50.719Z,1009.00
2023-05-12T02:30:50.746Z,1007.00
2023-05-12T02:31:50.785Z,1006.00
2023-05-12T02:32:50.821Z,1005.00
2023-05-12T02:33:50.804Z,1005.00
2023-05-12T02:34:50.835Z,1007.00
2023-05-12T02:35:50.847Z,1003.00
2023-05-12T02:36:50.865Z,1000.00
2023-05-12T02:37:50.891Z,1001.00
2023-05-12T02:38:50.916Z,1001.00
2023-05-12T02:39:50.904Z,1004.00
2023-05-12T02:40:50.951Z,1005.00
2023-05-12T02:41:51.014Z,1006.00
2023-05-12T02:42:50.984Z,1003.00
2023-05-12T02:43:51.010Z,1004.00
2023-05-12T02:44:51.022Z,1002.00
2023-05-12T02:45:51.115Z,1004.00
2023-05-12T02:46:51.083Z,1005.00
2023-05-12T02:47:51.138Z,1003.00
2023-05-12T02:48:51.121Z,1001.00
2023-05-12T02:49:51.155Z,1001.00
2023-05-12T02:50:51.177Z,998.00
2023-05-12T02:51:51.201Z,998.00
2023-05-12T02:52:51.200Z,999.00
2023-05-12T02:53:51.230Z,997.00
2023-05-12T02:54:51.234Z,992.00
2023-05-12T02:55:51.268Z,990.00
2023-05-12T02:56:51.283Z,992.00
2023-05-12T02:57:51.313Z,992.00
2023-05-12T02:58:51.332Z,992.00
2023-05-12T02:59:51.365Z,990.00
2023-05-12T03:00:59.853Z,991.00
2023-05-12T03:01:52.452Z,995.00
2023-05-12T03:02:51.413Z,995.00
2023-05-12T03:03:51.445Z,995.00
2023-05-12T03:04:51.351Z,995.00
2023-05-12T03:05:51.397Z,996.00
2023-05-12T03:06:51.333Z,996.00
2023-05-12T03:07:51.338Z,993.00
2023-05-12T03:08:51.372Z,991.00
2023-05-12T03:09:51.334Z,991.00
2023-05-12T03:10:51.320Z,991.00
2023-05-12T03:11:51.322Z,989.00
2023-05-12T03:12:51.296Z,992.00
2023-05-12T03:13:51.298Z,992.00
2023-05-12T03:14:51.364Z,993.00
2023-05-12T03:15:51.281Z,992.00
2023-05-12T03:16:51.307Z,991.00
2023-05-12T03:17:51.399Z,990.00
2023-05-12T03:18:51.350Z,988.00
2023-05-12T03:19:51.260Z,992.00
2023-05-12T03:20:51.283Z,993.00
2023-05-12T03:21:51.348Z,991.00
2023-05-12T03:22:51.480Z,985.00
2023-05-12T03:23:51.443Z,987.00
2023-05-12T03:24:51.426Z,989.00
2023-05-12T03:25:51.447Z,989.00
2023-05-12T03:26:51.457Z,989.00
2023-05-12T03:27:51.485Z,987.00
2023-05-12T03:28:51.496Z,985.00
2023-05-12T03:29:51.524Z,986.00
2023-05-12T03:30:51.567Z,984.00
2023-05-12T03:31:51.650Z,983.00
2023-05-12T03:32:51.704Z,983.00
2023-05-12T03:33:51.635Z,981.00
2023-05-12T03:34:51.646Z,980.00
2023-05-12T03:35:51.657Z,982.00
2023-05-12T03:36:51.714Z,984.00
2023-05-12T03:37:51.708Z,982.00
2023-05-12T03:38:51.761Z,984.00
2023-05-12T03:39:51.788Z,984.00
2023-05-12T03:40:51.798Z,983.00
2023-05-12T03:41:51.824Z,984.00
2023-05-12T03:42:51.838Z,985.00
2023-05-12T03:43:51.909Z,986.00
2023-05-12T03:44:51.885Z,981.00
2023-05-12T03:45:51.923Z,979.00
2023-05-12T03:46:52.070Z,979.00
2023-05-12T03:47:52.019Z,979.00
2023-05-12T03:48:52.013Z,978.00
2023-05-12T03:49:52.031Z,979.00
2023-05-12T03:50:52.068Z,977.00
2023-05-12T03:51:52.088Z,977.00
2023-05-12T03:52:52.168Z,978.00
2023-05-12T03:53:52.134Z,978.00
2023-05-12T03:54:52.221Z,981.00
2023-05-12T03:55:52.226Z,981.00
2023-05-12T03:56:52.243Z,980.00
2023-05-12T03:57:52.254Z,977.00
2023-05-12T03:58:52.290Z,974.00
2023-05-12T03:59:52.331Z,977.00
2023-05-12T04:00:52.317Z,978.00
2023-05-12T04:01:52.398Z,975.00
2023-05-12T04:02:52.510Z,975.00
2023-05-12T04:03:52.530Z,975.00
2023-05-12T04:04:52.425Z,979.00
2023-05-12T04:05:52.456Z,980.00
2023-05-12T04:06:52.485Z,979.00
2023-05-12T04:07:52.497Z,977.00
2023-05-12T04:08:52.530Z,978.00
2023-05-12T04:09:52.551Z,976.00
2023-05-12T04:10:52.573Z,976.00
2023-05-12T04:11:52.612Z,975.00
2023-05-12T04:12:52.666Z,972.00
2023-05-12T04:13:52.668Z,972.00
2023-05-12T04:14:52.697Z,974.00
2023-05-12T04:15:52.718Z,974.00
2023-05-12T04:16:52.794Z,973.00
2023-05-12T04:17:52.819Z,971.00
2023-05-12T04:18:52.907Z,969.00
2023-05-12T04:19:52.845Z,969.00
2023-05-12T04:20:52.854Z,967.00
2023-05-12T04:21:52.885Z,966.00
2023-05-12T04:22:52.906Z,966.00
2023-05-12T04:23:52.929Z,970.00
2023-05-12T04:24:52.974Z,969.00
2023-05-12T04:25:53.009Z,972.00
2023-05-12T04:26:53.022Z,972.00
2023-05-12T04:27:53.044Z,971.00
2023-05-12T04:28:53.081Z,969.00
2023-05-12T04:29:53.110Z,969.00
2023-05-12T04:30:53.111Z,965.00
2023-05-12T04:31:53.151Z,962.00
2023-05-12T04:32:53.224Z,961.00
2023-05-12T04:33:53.201Z,963.00
2023-05-12T04:34:53.256Z,965.00
2023-05-12T04:35:53.266Z,964.00
2023-05-12T04:36:53.289Z,960.00
2023-05-12T04:37:53.297Z,960.00
2023-05-12T04:38:53.332Z,960.00
2023-05-12T04:39:53.343Z,961.00
2023-05-12T04:40:53.402Z,963.00
2023-05-12T04:41:53.420Z,963.00
2023-05-12T04:42:53.417Z,964.00
2023-05-12T04:44:53.441Z,962.00
2023-05-12T04:45:53.451Z,960.00
2023-05-12T04:46:53.532Z,958.00
2023-05-12T04:47:53.465Z,960.00
2023-05-12T04:48:53.413Z,959.00
2023-05-12T04:49:53.405Z,960.00
2023-05-12T04:50:53.399Z,956.00
2023-05-12T04:51:53.435Z,958.00
2023-05-12T04:52:53.412Z,956.00
2023-05-12T04:53:53.400Z,961.00
2023-05-12T04:54:53.393Z,961.00
2023-05-12T04:55:53.369Z,960.00
2023-05-12T04:56:53.355Z,959.00
2023-05-12T04:57:53.378Z,960.00
2023-05-12T04:58:53.353Z,958.00
2023-05-12T04:59:53.358Z,958.00
2023-05-12T05:00:53.332Z,957.00
2023-05-12T05:01:53.371Z,960.00
2023-05-12T05:02:53.398Z,960.00
2023-05-12T05:03:53.412Z,955.00
2023-05-12T05:04:53.313Z,951.00
2023-05-12T05:05:53.314Z,951.00
2023-05-12T05:06:53.336Z,951.00
2023-05-12T05:07:53.314Z,953.00
2023-05-12T05:08:53.303Z,955.00
2023-05-12T05:09:53.282Z,956.00
2023-05-12T05:10:53.271Z,957.00
2023-05-12T05:11:53.301Z,956.00
2023-05-12T05:12:53.267Z,955.00
2023-05-12T05:13:53.258Z,954.00
2023-05-12T05:14:53.372Z,954.00
2023-05-12T05:15:53.338Z,955.00
2023-05-12T05:16:53.258Z,955.00
2023-05-12T05:17:53.335Z,957.00
2023-05-12T05:18:53.288Z,956.00
2023-05-12T05:19:58.156Z,955.00
2023-05-12T05:20:57.361Z,954.00
2023-05-12T05:21:53.250Z,953.00
2023-05-12T05:22:53.212Z,948.00
2023-05-12T05:23:53.199Z,941.00
2023-05-12T05:24:53.218Z,942.00
2023-05-12T05:25:53.177Z,945.00
2023-05-12T05:26:53.235Z,946.00
2023-05-12T05:27:53.171Z,943.00
2023-05-12T05:28:53.242Z,943.00
2023-05-12T05:29:53.155Z,944.00
2023-05-12T05:30:53.149Z,939.00
2023-05-12T05:31:53.318Z,941.00
2023-05-12T05:32:53.513Z,941.00
2023-05-12T05:33:53.171Z,947.00
2023-05-12T05:34:53.153Z,949.00
2023-05-12T05:35:53.122Z,1020.00
2023-05-12T05:36:53.101Z,999.00
2023-05-12T05:37:53.126Z,1047.00
2023-05-12T05:38:53.151Z,1050.00
2023-05-12T05:39:53.202Z,1066.00
2023-05-12T05:40:54.451Z,1180.00
2023-05-12T05:41:53.198Z,1202.00
2023-05-12T05:42:53.224Z,1183.00
2023-05-12T05:43:53.252Z,1237.00
2023-05-12T05:44:53.277Z,1295.00
2023-05-12T05:45:53.279Z,1303.00
2023-05-12T05:46:53.383Z,1298.00
2023-05-12T05:47:53.364Z,1342.00
2023-05-12T05:48:53.329Z,1364.00
2023-05-12T05:49:53.348Z,1423.00
2023-05-12T05:50:53.376Z,1439.00
2023-05-12T05:51:53.412Z,1501.00
2023-05-12T05:52:53.477Z,1527.00
2023-05-12T05:53:53.500Z,1538.00
2023-05-12T05:54:53.608Z,1554.00
2023-05-12T05:55:53.620Z,1572.00
2023-05-12T05:56:53.687Z,1589.00
2023-05-12T05:57:53.767Z,1661.00
2023-05-12T05:58:53.776Z,1665.00
2023-05-12T05:59:53.876Z,1663.00
2023-05-12T06:00:53.878Z,1664.00
2023-05-12T06:01:53.970Z,1658.00
2023-05-12T06:02:54.097Z,1667.00
2023-05-12T06:03:54.107Z,1670.00
2023-05-12T06:04:54.063Z,1681.00
2023-05-12T06:05:54.100Z,1693.00
2023-05-12T06:06:54.136Z,1700.00
2023-05-12T06:07:54.194Z,1706.00
2023-05-12T06:08:54.231Z,1731.00
2023-05-12T06:09:55.213Z,1749.00
2023-05-12T06:10:54.205Z,1759.00
2023-05-12T06:11:54.213Z,1758.00
2023-05-12T06:12:54.418Z,1759.00
2023-05-12T06:13:54.193Z,1757.00
2023-05-12T06:14:54.188Z,1759.00
2023-05-12T06:15:54.184Z,1763.00
2023-05-12T06:16:54.234Z,1763.00
2023-05-12T06:17:54.337Z,1766.00
2023-05-12T06:18:54.219Z,1761.00
2023-05-12T06:19:54.169Z,1753.00
2023-05-12T06:20:54.147Z,1759.00
2023-05-12T06:21:54.171Z,1758.00
2023-05-12T06:22:54.153Z,1763.00
2023-05-12T06:23:54.146Z,1771.00
2023-05-12T06:24:54.187Z,1787.00
2023-05-12T06:25:54.216Z,1793.00
2023-05-12T06:26:54.247Z,1803.00
2023-05-12T06:27:54.275Z,1810.00
2023-05-12T06:28:54.309Z,1799.00
2023-05-12T06:29:54.343Z,1805.00
2023-05-12T06:30:54.356Z,1806.00
2023-05-12T06:31:54.448Z,1801.00
2023-05-12T06:32:54.472Z,1794.00
2023-05-12T06:33:54.444Z,1782.00
2023-05-12T06:34:54.522Z,1778.00
2023-05-12T06:35:54.481Z,1852.00
2023-05-12T06:36:55.113Z,1824.00
2023-05-12T06:37:54.548Z,1795.00
2023-05-12T06:38:54.579Z,1622.00
2023-05-12T06:39:54.667Z,1197.00
2023-05-12T06:40:54.619Z,1070.00
2023-05-12T06:41:54.781Z,1038.00
2023-05-12T06:42:54.773Z,1014.00
2023-05-12T06:43:54.723Z,857.00
2023-05-12T06:44:54.760Z,853.00
2023-05-12T06:45:54.867Z,812.00
2023-05-12T06:46:54.798Z,769.00
2023-05-12T06:47:54.882Z,722.00
2023-05-12T06:48:54.905Z,695.00
2023-05-12T06:49:54.948Z,670.00
2023-05-12T06:50:55.123Z,663.00
2023-05-12T06:51:55.137Z,652.00
2023-05-12T06:52:55.087Z,633.00
2023-05-12T06:53:55.078Z,616.00
2023-05-12T06:54:55.198Z,609.00
2023-05-12T06:55:55.200Z,587.00
2023-05-12T06:56:55.183Z,572.00
2023-05-12T06:57:55.210Z,556.00
2023-05-12T06:58:55.226Z,552.00
2023-05-12T06:59:55.248Z,544.00
2023-05-12T07:00:55.285Z,542.00
2023-05-12T07:01:55.402Z,539.00
2023-05-12T07:02:55.353Z,535.00
2023-05-12T07:03:55.385Z,532.00
2023-05-12T07:04:55.436Z,528.00
2023-05-12T07:05:55.497Z,524.00
2023-05-12T07:06:55.502Z,519.00
2023-05-12T07:07:55.577Z,519.00
2023-05-12T07:08:55.622Z,518.00
2023-05-12T07:09:55.607Z,516.00
2023-05-12T07:10:55.649Z,513.00
2023-05-12T07:11:55.714Z,514.00
2023-05-12T07:12:55.752Z,511.00
2023-05-12T07:13:55.790Z,509.00
2023-05-12T07:14:55.852Z,506.00
2023-05-12T07:15:55.889Z,504.00
2023-05-12T07:16:55.898Z,502.00
2023-05-12T07:17:56.064Z,506.00
2023-05-12T07:18:55.992Z,507.00
2023-05-12T07:19:56.010Z,504.00
2023-05-12T07:20:56.055Z,506.00
2023-05-12T07:21:56.096Z,505.00
2023-05-12T07:22:56.119Z,504.00
2023-05-12T07:23:56.178Z,500.00
2023-05-12T07:24:56.228Z,499.00
2023-05-12T07:25:56.279Z,497.00
2023-05-12T07:26:56.288Z,496.00
2023-05-12T07:27:56.326Z,494.00
2023-05-12T07:28:56.362Z,493.00
2023-05-12T07:29:56.408Z,494.00
2023-05-12T07:30:56.471Z,495.00
2023-05-12T07:31:56.487Z,493.00
2023-05-12T07:32:56.575Z,551.00
2023-05-12T07:33:56.572Z,633.00
2023-05-12T07:34:56.611Z,828.00
2023-05-12T07:35:56.686Z,774.00
2023-05-12T07:36:56.668Z,778.00
2023-05-12T07:37:56.692Z,871.00
2023-05-12T07:38:56.725Z,953.00
2023-05-12T07:39:56.741Z,971.00
2023-05-12T07:40:56.833Z,1012.00
2023-05-12T07:41:56.892Z,1064.00
2023-05-12T07:42:56.889Z,1098.00
2023-05-12T07:43:56.928Z,1115.00
2023-05-12T07:44:56.992Z,1158.00
2023-05-12T07:45:56.978Z,1178.00
2023-05-12T07:46:57.086Z,1219.00
2023-05-12T07:47:57.048Z,1223.00
2023-05-12T07:48:57.018Z,1240.00
2023-05-12T07:49:57.041Z,1299.00
2023-05-12T07:50:57.041Z,1304.00
2023-05-12T07:51:57.065Z,1320.00
2023-05-12T07:52:57.064Z,1330.00
2023-05-12T07:53:57.051Z,1340.00
2023-05-12T07:54:57.092Z,1347.00
2023-05-12T07:55:57.134Z,1363.00
2023-05-12T07:56:57.196Z,1388.00
2023-05-12T07:57:57.252Z,1418.00
2023-05-12T07:58:57.252Z,1446.00
2023-05-12T07:59:57.297Z,1448.00
2023-05-12T08:00:57.368Z,1460.00
2023-05-12T08:01:57.462Z,1464.00
2023-05-12T08:02:57.698Z,1503.00
2023-05-12T08:03:57.533Z,1528.00
2023-05-12T08:04:57.630Z,1542.00
2023-05-12T08:05:57.638Z,1555.00
2023-05-12T08:06:57.651Z,1576.00
2023-05-12T08:07:57.720Z,1584.00
2023-05-12T08:08:57.744Z,1612.00
2023-05-12T08:09:57.767Z,1632.00
2023-05-12T08:10:57.952Z,1638.00
2023-05-12T08:11:57.858Z,1640.00
2023-05-12T08:12:57.932Z,1643.00
2023-05-12T08:13:57.921Z,1650.00
2023-05-12T08:14:57.951Z,1662.00
2023-05-12T08:15:57.967Z,1671.00
2023-05-12T08:16:58.084Z,1682.00
2023-05-12T08:17:58.156Z,1689.00
2023-05-12T08:18:58.152Z,1704.00
2023-05-12T08:19:58.155Z,1711.00
2023-05-12T08:20:58.150Z,1699.00
2023-05-12T08:21:58.180Z,1704.00
2023-05-12T08:22:58.245Z,1702.00
2023-05-12T08:23:58.282Z,1715.00
2023-05-12T08:24:58.296Z,1734.00
2023-05-12T08:25:58.319Z,1740.00
2023-05-12T08:26:58.394Z,1745.00
2023-05-12T08:27:58.469Z,1739.00
2023-05-12T08:28:58.412Z,1745.00
2023-05-12T08:29:58.469Z,1755.00
2023-05-12T08:30:58.540Z,1609.00
2023-05-12T08:31:58.551Z,1537.00
2023-05-12T08:32:58.618Z,1352.00
2023-05-12T08:34:58.637Z,1476.00
2023-05-12T08:35:58.679Z,1565.00
2023-05-12T08:36:58.715Z,1567.00
2023-05-12T08:37:58.783Z,1575.00
2023-05-12T08:38:58.783Z,1577.00
2023-05-12T08:39:58.821Z,1645.00
2023-05-12T08:40:58.870Z,1584.00
2023-05-12T08:41:58.921Z,1593.00
2023-05-12T08:43:01.625Z,1612.00
2023-05-12T08:43:58.970Z,1626.00
2023-05-12T08:44:58.936Z,1666.00
2023-05-12T08:45:59.095Z,1695.00
2023-05-12T08:46:58.960Z,1725.00
2023-05-12T08:47:59.104Z,1758.00
2023-05-12T08:48:59.049Z,1777.00
2023-05-12T08:49:58.910Z,1781.00
2023-05-12T08:50:58.921Z,1785.00
2023-05-12T08:51:58.921Z,1781.00
2023-05-12T08:52:58.890Z,1752.00
2023-05-12T08:53:59.022Z,1409.00
2023-05-12T08:55:00.107Z,1403.00
2023-05-12T08:57:58.857Z,1351.00
2023-05-12T08:58:58.915Z,1328.00
2023-05-12T08:59:58.831Z,1324.00
2023-05-12T09:00:58.858Z,1330.00
2023-05-12T09:01:58.845Z,1339.00
2023-05-12T09:02:58.840Z,1358.00
2023-05-12T09:03:58.898Z,1393.00
2023-05-12T09:04:58.889Z,1412.00
2023-05-12T09:05:58.789Z,1429.00
2023-05-12T09:06:58.797Z,1443.00
2023-05-12T09:07:58.807Z,1457.00
2023-05-12T09:08:58.790Z,1474.00
2023-05-12T09:09:58.788Z,1534.00
2023-05-12T09:10:58.794Z,1565.00
2023-05-12T09:11:58.776Z,1578.00
2023-05-12T09:12:58.755Z,1575.00
2023-05-12T09:13:58.743Z,1575.00
2023-05-12T09:14:58.921Z,1589.00
2023-05-12T09:15:58.812Z,1551.00
2023-05-12T09:16:58.740Z,1058.00
2023-05-12T09:17:58.759Z,977.00
2023-05-12T09:18:58.795Z,997.00
2023-05-12T09:19:58.710Z,832.00
2023-05-12T09:20:58.700Z,807.00
2023-05-12T09:21:58.688Z,758.00
2023-05-12T09:22:58.713Z,796.00
2023-05-12T09:23:58.696Z,787.00
2023-05-12T09:24:58.695Z,787.00
2023-05-12T09:25:58.692Z,759.00
2023-05-12T09:26:58.690Z,759.00
2023-05-12T09:27:58.672Z,765.00
2023-05-12T09:28:58.662Z,834.00
2023-05-12T09:29:59.861Z,905.00
2023-05-12T09:30:58.905Z,958.00
2023-05-12T09:31:58.708Z,1038.00
2023-05-12T09:32:58.730Z,999.00
2023-05-12T09:33:58.663Z,985.00
2023-05-12T09:34:58.730Z,969.00
2023-05-12T09:35:58.626Z,949.00
2023-05-12T09:36:58.607Z,942.00
2023-05-12T09:37:58.601Z,940.00
2023-05-12T09:38:58.605Z,944.00
2023-05-12T09:39:58.583Z,941.00
2023-05-12T09:40:58.575Z,939.00
2023-05-12T09:41:58.581Z,933.00
2023-05-12T09:42:58.599Z,926.00
2023-05-12T09:43:58.647Z,925.00
2023-05-12T09:44:58.682Z,921.00
2023-05-12T09:45:58.724Z,917.00
2023-05-12T09:46:58.684Z,911.00
2023-05-12T09:47:58.772Z,909.00
2023-05-12T09:48:58.711Z,904.00
2023-05-12T09:49:58.757Z,903.00
2023-05-12T09:50:58.765Z,902.00
2023-05-12T09:51:58.813Z,903.00
2023-05-12T09:52:59.512Z,897.00
2023-05-12T09:53:58.794Z,893.00
2023-05-12T09:54:59.507Z,885.00
2023-05-12T09:55:58.832Z,882.00
2023-05-12T09:56:58.850Z,879.00
2023-05-12T09:57:58.874Z,877.00
2023-05-12T09:58:59.018Z,875.00
2023-05-12T09:59:58.955Z,877.00
2023-05-12T10:01:59.016Z,874.00
2023-05-12T10:02:59.048Z,869.00
2023-05-12T10:03:59.550Z,870.00
2023-05-12T10:04:59.090Z,862.00
2023-05-12T10:05:59.008Z,856.00
2023-05-12T10:06:59.072Z,853.00
2023-05-12T10:07:59.058Z,851.00
2023-05-12T10:08:59.068Z,850.00
2023-05-12T10:09:59.087Z,850.00
2023-05-12T10:10:59.089Z,849.00
2023-05-12T10:11:59.172Z,847.00
2023-05-12T10:12:59.140Z,845.00
2023-05-12T10:13:59.160Z,842.00
2023-05-12T10:14:59.174Z,844.00
2023-05-12T10:15:59.188Z,843.00
2023-05-12T10:16:59.226Z,845.00
2023-05-12T10:17:59.257Z,846.00
2023-05-12T10:18:59.384Z,842.00
2023-05-12T10:19:59.194Z,839.00
2023-05-12T10:20:59.231Z,837.00
2023-05-12T10:21:59.200Z,835.00
2023-05-12T10:22:59.216Z,835.00
2023-05-12T10:23:59.265Z,832.00
2023-05-12T10:24:59.264Z,829.00
2023-05-12T10:25:59.270Z,828.00
2023-05-12T10:26:59.320Z,824.00
2023-05-12T10:27:59.372Z,1242.00
2023-05-12T10:28:59.358Z,1037.00
2023-05-12T10:29:59.540Z,1010.00
2023-05-12T10:30:59.449Z,1039.00
2023-05-12T10:31:59.495Z,1054.00
2023-05-12T10:32:59.635Z,1112.00
2023-05-12T10:33:59.616Z,1130.00
2023-05-12T10:35:02.537Z,1129.00
2023-05-12T10:35:59.638Z,1197.00
2023-05-12T10:36:59.619Z,1203.00
2023-05-12T10:37:59.624Z,1181.00
2023-05-12T10:38:59.611Z,1181.00
2023-05-12T10:39:59.609Z,1249.00
2023-05-12T10:40:59.594Z,1325.00
2023-05-12T10:41:59.600Z,1321.00
2023-05-12T10:42:59.590Z,1325.00
2023-05-12T10:43:59.576Z,1358.00
2023-05-12T10:44:59.578Z,1359.00
2023-05-12T10:45:59.571Z,1274.00
2023-05-12T10:46:59.561Z,1299.00
2023-05-12T10:47:59.580Z,1318.00
2023-05-12T10:48:59.562Z,1333.00
2023-05-12T10:49:59.569Z,1342.00
2023-05-12T10:50:59.549Z,1353.00
2023-05-12T10:51:59.569Z,1359.00
2023-05-12T10:52:59.535Z,1375.00
2023-05-12T10:53:59.532Z,1375.00
2023-05-12T10:54:59.519Z,1372.00
2023-05-12T10:55:59.676Z,1392.00
2023-05-12T10:57:00.748Z,1415.00
2023-05-12T10:57:59.700Z,1428.00
2023-05-12T10:58:59.703Z,1439.00
2023-05-12T10:59:59.916Z,1473.00
2023-05-12T11:01:00.038Z,1470.00
2023-05-12T11:02:00.200Z,1475.00
2023-05-12T11:03:04.229Z,1472.00
2023-05-12T11:04:01.236Z,1459.00
2023-05-12T11:04:59.635Z,1442.00
2023-05-12T11:05:59.498Z,1440.00
2023-05-12T11:06:59.637Z,1439.00
2023-05-12T11:08:00.426Z,1439.00
2023-05-12T11:09:00.701Z,1442.00
2023-05-12T11:10:01.235Z,1445.00
2023-05-12T11:10:59.600Z,1447.00
2023-05-12T11:12:00.447Z,1459.00
2023-05-12T11:12:59.423Z,1494.00
2023-05-12T11:13:59.413Z,1502.00
2023-05-12T11:14:59.463Z,1500.00
2023-05-12T11:15:59.533Z,1506.00
2023-05-12T11:16:59.496Z,1548.00
2023-05-12T11:17:59.563Z,1535.00
2023-05-12T11:18:59.568Z,1469.00
2023-05-12T11:19:59.589Z,1469.00
2023-05-12T11:20:59.560Z,1475.00
2023-05-12T11:21:59.622Z,1467.00
2023-05-12T11:22:59.600Z,1467.00
2023-05-12T11:23:59.646Z,1462.00
2023-05-12T11:24:59.672Z,1453.00
2023-05-12T11:25:59.721Z,1431.00
2023-05-12T11:26:59.735Z,1430.00
2023-05-12T11:27:59.766Z,1427.00
2023-05-12T11:28:59.815Z,1428.00
2023-05-12T11:29:59.833Z,1427.00
2023-05-12T11:30:59.868Z,1425.00
2023-05-12T11:31:59.964Z,1429.00
2023-05-12T11:33:00.007Z,1428.00
2023-05-12T11:34:10.761Z,1428.00
2023-05-12T11:35:00.963Z,1427.00
2023-05-12T11:35:59.953Z,1428.00
2023-05-12T11:36:59.938Z,1430.00
2023-05-12T11:37:59.939Z,1426.00
2023-05-12T11:38:59.952Z,1419.00
2023-05-12T11:39:59.922Z,1422.00
2023-05-12T11:40:59.906Z,1418.00
2023-05-12T11:42:11.628Z,1418.00
2023-05-12T11:43:00.909Z,1419.00
2023-05-12T11:43:59.893Z,1421.00
2023-05-12T11:44:59.884Z,1423.00
2023-05-12T11:45:59.977Z,1416.00
2023-05-12T11:46:59.876Z,1414.00
2023-05-12T11:47:59.901Z,1412.00
2023-05-12T11:48:59.875Z,1408.00
2023-05-12T11:49:59.881Z,1409.00
2023-05-12T11:50:59.846Z,1410.00
2023-05-12T11:51:59.851Z,1405.00
2023-05-12T11:52:59.862Z,1407.00
2023-05-12T11:53:59.844Z,1407.00
2023-05-12T11:54:59.904Z,1404.00
2023-05-12T11:55:59.900Z,1407.00
2023-05-12T11:56:59.924Z,1405.00
2023-05-12T11:57:59.968Z,1403.00
2023-05-12T11:59:00.001Z,1396.00
2023-05-12T12:00:00.174Z,1397.00
2023-05-12T12:01:00.097Z,1397.00
2023-05-12T12:02:00.232Z,1396.00
2023-05-12T12:03:00.266Z,1390.00
2023-05-12T12:04:00.320Z,1390.00
2023-05-12T12:05:00.251Z,1387.00
2023-05-12T12:06:00.316Z,1383.00
2023-05-12T12:07:00.370Z,1383.00
2023-05-12T12:08:00.384Z,1381.00
2023-05-12T12:09:00.448Z,1376.00
2023-05-12T12:10:02.096Z,1378.00
2023-05-12T12:11:03.422Z,1378.00
2023-05-12T12:12:00.545Z,1378.00
2023-05-12T12:13:00.534Z,1378.00
2023-05-12T12:14:00.549Z,1378.00
2023-05-12T12:15:00.527Z,1377.00
2023-05-12T12:16:00.553Z,1377.00
2023-05-12T12:17:00.506Z,1376.00
2023-05-12T12:18:00.556Z,1375.00
2023-05-12T12:19:00.542Z,1376.00
2023-05-12T12:20:00.503Z,1377.00